sensor_id;sensor_type;location;lat;lon;timestamp;temperature;humidity
22299;DHT22;11317;51.072;17.036;2024-02-14T11:43:51;12.90;99.90
22299;DHT22;11317;51.072;17.036;2024-02-14T11:46:17;12.60;99.90
22299;DHT22;11317;51.072;17.036;2024-02-14T11:48:44;13.00;99.90
22299;DHT22;11317;51.072;17.036;2024-02-14T11:51:14;13.00;99.90
22299;DHT22;11317;51.072;17.036;2024-02-14T11:53:40;12.40;99.90
22299;DHT22;11317;51.072;17.036;2024-02-14T12:01:03;12.20;99.90
22299;DHT22;11317;51.072;17.036;2024-02-14T12:03:32;12.20;99.90
22299;DHT22;11317;51.072;17.036;2024-02-14T12:13:20;11.90;99.90
22299;DHT22;11317;51.072;17.036;2024-02-14T12:15:48;11.80;99.90
22299;DHT22;11317;51.072;17.036;2024-02-14T12:18:15;11.50;99.90
22299;DHT22;11317;51.072;17.036;2024-02-14T12:20:42;11.50;99.90
22299;DHT22;11317;51.072;17.036;2024-02-14T12:23:14;11.50;99.90
22299;DHT22;11317;51.072;17.036;2024-02-14T12:28:16;11.60;99.90
22299;DHT22;11317;51.072;17.036;2024-02-14T12:30:43;11.70;99.90
22299;DHT22;11317;51.072;17.036;2024-02-14T12:33:15;11.60;99.90
22299;DHT22;11317;51.072;17.036;2024-02-14T12:35:45;11.30;99.90
22299;DHT22;11317;51.072;17.036;2024-02-14T12:38:12;11.60;99.90
22299;DHT22;11317;51.072;17.036;2024-02-14T12:40:39;11.60;99.90
22299;DHT22;11317;51.072;17.036;2024-02-14T12:43:14;11.50;99.90
22299;DHT22;11317;51.072;17.036;2024-02-14T12:45:43;11.80;99.90
22299;DHT22;11317;51.072;17.036;2024-02-14T12:48:11;11.80;99.90
22299;DHT22;11317;51.072;17.036;2024-02-14T12:53:07;12.00;99.90
22299;DHT22;11317;51.072;17.036;2024-02-14T13:00:26;12.10;99.90
22299;DHT22;11317;51.072;17.036;2024-02-14T13:05:19;12.40;99.90
22299;DHT22;11317;51.072;17.036;2024-02-14T13:12:38;12.10;99.90
22299;DHT22;11317;51.072;17.036;2024-02-14T13:15:08;12.30;99.90
22299;DHT22;11317;51.072;17.036;2024-02-14T13:29:47;11.50;99.90
22299;DHT22;11317;51.072;17.036;2024-02-14T13:51:51;11.10;99.90
22299;DHT22;11317;51.072;17.036;2024-02-14T13:54:24;11.20;99.90
22299;DHT22;11317;51.072;17.036;2024-02-14T14:18:49;11.00;99.90
22299;DHT22;11317;51.072;17.036;2024-02-14T14:35:54;10.60;99.90
22299;DHT22;11317;51.072;17.036;2024-02-14T14:38:21;10.90;99.90
22299;DHT22;11317;51.072;17.036;2024-02-14T14:40:47;10.80;99.90
22299;DHT22;11317;51.072;17.036;2024-02-14T14:43:14;11.10;99.90
22299;DHT22;11317;51.072;17.036;2024-02-14T14:48:07;10.70;99.90
22299;DHT22;11317;51.072;17.036;2024-02-14T14:50:37;11.00;99.90
22299;DHT22;11317;51.072;17.036;2024-02-14T15:00:44;10.80;99.90
22299;DHT22;11317;51.072;17.036;2024-02-14T15:08:06;10.90;99.90
22299;DHT22;11317;51.072;17.036;2024-02-14T15:10:35;10.90;99.90
22299;DHT22;11317;51.072;17.036;2024-02-14T15:13:05;10.90;99.90
22299;DHT22;11317;51.072;17.036;2024-02-14T15:15:32;10.90;99.90
22299;DHT22;11317;51.072;17.036;2024-02-14T15:17:58;11.00;99.90
22299;DHT22;11317;51.072;17.036;2024-02-14T15:25:16;10.90;99.90
22299;DHT22;11317;51.072;17.036;2024-02-14T15:30:24;10.70;99.90
22299;DHT22;11317;51.072;17.036;2024-02-14T15:35:49;10.70;99.90
22299;DHT22;11317;51.072;17.036;2024-02-14T15:40:41;10.50;99.90
22299;DHT22;11317;51.072;17.036;2024-02-14T15:52:52;10.40;99.90
22299;DHT22;11317;51.072;17.036;2024-02-14T16:00:14;10.40;99.90
22299;DHT22;11317;51.072;17.036;2024-02-14T16:02:40;10.40;99.90
22299;DHT22;11317;51.072;17.036;2024-02-14T16:05:09;10.60;99.90
22299;DHT22;11317;51.072;17.036;2024-02-14T16:07:36;10.40;99.90
22299;DHT22;11317;51.072;17.036;2024-02-14T16:10:02;10.50;99.90
22299;DHT22;11317;51.072;17.036;2024-02-14T16:36:55;10.00;99.90
22299;DHT22;11317;51.072;17.036;2024-02-14T16:46:41;10.10;99.90
22299;DHT22;11317;51.072;17.036;2024-02-14T16:51:35;9.60;99.90
22299;DHT22;11317;51.072;17.036;2024-02-14T16:58:56;9.80;99.90
22299;DHT22;11317;51.072;17.036;2024-02-14T17:01:22;9.90;99.90
22299;DHT22;11317;51.072;17.036;2024-02-14T17:06:19;9.60;99.90
22299;DHT22;11317;51.072;17.036;2024-02-14T17:11:15;9.60;99.90
22299;DHT22;11317;51.072;17.036;2024-02-14T17:13:44;9.40;99.90
22299;DHT22;11317;51.072;17.036;2024-02-14T17:18:36;9.50;99.90
22299;DHT22;11317;51.072;17.036;2024-02-14T17:21:02;10.90;99.90
22299;DHT22;11317;51.072;17.036;2024-02-14T17:23:29;9.50;99.90
22299;DHT22;11317;51.072;17.036;2024-02-14T17:28:22;9.30;99.90
22299;DHT22;11317;51.072;17.036;2024-02-14T17:30:49;9.50;99.90
22299;DHT22;11317;51.072;17.036;2024-02-14T17:35:43;9.70;99.90
22299;DHT22;11317;51.072;17.036;2024-02-14T17:38:08;10.20;99.90
22299;DHT22;11317;51.072;17.036;2024-02-14T17:40:34;9.50;99.90
22299;DHT22;11317;51.072;17.036;2024-02-14T17:45:26;9.50;99.90
22299;DHT22;11317;51.072;17.036;2024-02-14T18:00:04;9.20;99.90
22299;DHT22;11317;51.072;17.036;2024-02-14T18:14:46;9.20;99.90
22299;DHT22;11317;51.072;17.036;2024-02-14T18:22:04;8.40;99.90
22299;DHT22;11317;51.072;17.036;2024-02-14T18:46:31;9.00;99.90
22299;DHT22;11317;51.072;17.036;2024-02-14T18:48:58;8.90;99.90
22299;DHT22;11317;51.072;17.036;2024-02-14T18:51:23;9.00;99.90
22299;DHT22;11317;51.072;17.036;2024-02-14T18:56:17;9.00;99.90
22299;DHT22;11317;51.072;17.036;2024-02-14T18:58:43;9.10;99.90
22299;DHT22;11317;51.072;17.036;2024-02-14T19:03:35;8.90;99.90
22299;DHT22;11317;51.072;17.036;2024-02-14T19:15:49;9.10;99.90
22299;DHT22;11317;51.072;17.036;2024-02-14T19:28:03;9.30;99.90
22299;DHT22;11317;51.072;17.036;2024-02-14T19:30:29;9.10;99.90
22299;DHT22;11317;51.072;17.036;2024-02-14T19:35:21;9.10;99.90
22299;DHT22;11317;51.072;17.036;2024-02-14T19:40:13;9.00;99.90
22299;DHT22;11317;51.072;17.036;2024-02-14T19:45:06;9.10;99.90
22299;DHT22;11317;51.072;17.036;2024-02-14T19:52:32;9.00;99.90
22299;DHT22;11317;51.072;17.036;2024-02-14T19:55:01;8.90;99.90
22299;DHT22;11317;51.072;17.036;2024-02-14T19:57:29;8.60;99.90
22299;DHT22;11317;51.072;17.036;2024-02-14T20:02:25;8.80;99.90
22299;DHT22;11317;51.072;17.036;2024-02-14T20:09:46;8.90;99.90
22299;DHT22;11317;51.072;17.036;2024-02-14T20:19:32;8.90;99.90
22299;DHT22;11317;51.072;17.036;2024-02-14T20:24:24;8.80;99.90
22299;DHT22;11317;51.072;17.036;2024-02-14T20:26:49;8.70;99.90
22299;DHT22;11317;51.072;17.036;2024-02-14T20:29:15;9.10;99.90
22299;DHT22;11317;51.072;17.036;2024-02-14T20:31:42;8.90;99.90
22299;DHT22;11317;51.072;17.036;2024-02-14T20:36:33;8.90;99.90
22299;DHT22;11317;51.072;17.036;2024-02-14T20:39:01;8.60;99.90
22299;DHT22;11317;51.072;17.036;2024-02-14T20:41:28;8.70;99.90
22299;DHT22;11317;51.072;17.036;2024-02-14T20:46:22;9.00;99.90
22299;DHT22;11317;51.072;17.036;2024-02-14T20:48:52;8.80;99.90
22299;DHT22;11317;51.072;17.036;2024-02-14T20:53:45;8.90;99.90
22299;DHT22;11317;51.072;17.036;2024-02-14T20:58:37;9.10;99.90
22299;DHT22;11317;51.072;17.036;2024-02-14T21:03:30;8.80;99.90
22299;DHT22;11317;51.072;17.036;2024-02-14T21:05:56;9.10;99.90
22299;DHT22;11317;51.072;17.036;2024-02-14T21:10:48;8.70;99.90
22299;DHT22;11317;51.072;17.036;2024-02-14T21:15:41;8.80;99.90
22299;DHT22;11317;51.072;17.036;2024-02-14T21:20:35;8.70;99.90
22299;DHT22;11317;51.072;17.036;2024-02-14T21:32:51;8.60;99.90
22299;DHT22;11317;51.072;17.036;2024-02-14T21:52:28;8.50;99.90
22299;DHT22;11317;51.072;17.036;2024-02-14T21:57:22;8.90;99.90
22299;DHT22;11317;51.072;17.036;2024-02-14T21:59:52;8.70;99.90
22299;DHT22;11317;51.072;17.036;2024-02-14T22:12:07;8.50;99.90
22299;DHT22;11317;51.072;17.036;2024-02-14T22:14:33;8.80;99.90
22299;DHT22;11317;51.072;17.036;2024-02-14T22:21:54;8.30;99.90
22299;DHT22;11317;51.072;17.036;2024-02-14T22:24:20;8.30;99.90
22299;DHT22;11317;51.072;17.036;2024-02-14T22:26:48;8.50;99.90
22299;DHT22;11317;51.072;17.036;2024-02-14T22:29:13;8.60;99.90
22299;DHT22;11317;51.072;17.036;2024-02-14T22:41:25;8.50;99.90
22299;DHT22;11317;51.072;17.036;2024-02-14T22:43:51;8.60;99.90
22299;DHT22;11317;51.072;17.036;2024-02-14T22:48:44;8.80;99.90
22299;DHT22;11317;51.072;17.036;2024-02-14T22:51:10;8.90;99.90
22299;DHT22;11317;51.072;17.036;2024-02-14T22:58:28;9.20;99.90
22299;DHT22;11317;51.072;17.036;2024-02-14T23:03:21;9.20;99.90
22299;DHT22;11317;51.072;17.036;2024-02-14T23:05:47;9.30;99.90
22299;DHT22;11317;51.072;17.036;2024-02-14T23:15:32;9.60;99.90
22299;DHT22;11317;51.072;17.036;2024-02-14T23:20:25;9.20;99.90
22299;DHT22;11317;51.072;17.036;2024-02-14T23:25:17;9.20;99.90
22299;DHT22;11317;51.072;17.036;2024-02-14T23:27:43;9.10;99.90
22299;DHT22;11317;51.072;17.036;2024-02-14T23:30:11;10.30;99.90
22299;DHT22;11317;51.072;17.036;2024-02-14T23:35:06;8.60;99.90
22299;DHT22;11317;51.072;17.036;2024-02-14T23:37:36;8.90;99.90
22299;DHT22;11317;51.072;17.036;2024-02-14T23:42:29;8.80;99.90
22299;DHT22;11317;51.072;17.036;2024-02-14T23:54:45;8.60;99.90
22299;DHT22;11317;51.072;17.036;2024-02-14T23:57:11;9.00;99.90
22299;DHT22;11317;51.072;17.036;2024-02-14T23:59:37;8.80;99.90
